Budapest, Hungary

8:12 PM CET on February 12, 2016 (GMT +0100)
Budapest | | Change Station
CLOSE
Current Station
Personal Weather Station
Location: Budapest, BUDAPEST
Elevation: 417 ft
Nearby Weather Stations

Elev 417 ft 47.42 °N, 19.21 °E | Updated 1 minute ago

Mostly Cloudy
Mostly Cloudy
40.3 °F
Feels Like 40 °F
N
0.0
Wind Variable Wind from South
Gusts 0.0 mph

Today
High -- | Low -- °F
--% Chance of Precip.
Yesterday
High -- | Low -- °F
Precip. -- in
Pressure 29.65 in
Visibility 6.2 miles
Clouds Scattered Clouds 2400 ft
Mostly Cloudy 5500 ft
Windchill 40 °F
Dew Point 35 °F
Humidity 82%
Rainfall 0.07 in
Snow Depth Not available.
6:54 AM 5:00 PM
Waxing Crescent, 23% visible
METAR LHBP 121900Z 15005KT 9999 SCT024 BKN055 04/04 Q1004 NOSIG
Pressure 29.65 in
Visibility 6.2 miles
Clouds Scattered Clouds 2400 ft
Mostly Cloudy 5500 ft
Windchill 40 °F
Dew Point 35 °F
Humidity 82%
Rainfall 0.07 in
Snow Depth Not available.
6:54 AM 5:00 PM
Waxing Crescent, 23% visible
METAR LHBP 121900Z 15005KT 9999 SCT024 BKN055 04/04 Q1004 NOSIG

10-Day Weather Forecast

Almanac

Astronomy

Feb. 12, 2016 Rise Set
Actual Time
Civil Twilight
Nautical Twilight
Astronomical Twilight
Moon
Length of Visible Light
Length of Day
Tomorrow will be .
, % of the Moon is Illuminated

Today's Extremes

Country Highs Country Lows

Community

WunderPhotos

Upload Photos

1,892,376 photos uploaded!

WunderBlog® & News

Nearby

Air Quality

  Air Quality AQ Index Pollutant
Not available.

Snow Depth

Station Depth Elevation

Earthquake Activity

City Distance Mag. Time & Date
Minimum magnitude displayed is 2.5.

Coastal Water Temperatures

Place Temperature

Stations

Nearby Weather Stations

Station Location Temp. Windchill Dew Point Humidity Wind Precip. Elev Updated Type